createdAt,value
2023-03-05T00:02:06.918Z,3.44
2023-03-05T00:04:35.525Z,3.49
2023-03-05T00:07:02.423Z,3.45
2023-03-05T00:09:29.134Z,3.45
2023-03-05T00:11:55.961Z,3.41
2023-03-05T00:14:23.580Z,3.49
2023-03-05T00:16:50.226Z,3.44
2023-03-05T00:19:16.975Z,3.50
2023-03-05T00:21:45.027Z,3.48
2023-03-05T00:24:15.154Z,3.39
2023-03-05T00:26:42.526Z,3.37
2023-03-05T00:29:09.969Z,3.33
2023-03-05T00:31:38.035Z,3.36
2023-03-05T00:34:11.828Z,3.43
2023-03-05T00:36:43.110Z,3.38
2023-03-05T00:39:11.022Z,3.43
2023-03-05T00:41:38.712Z,3.36
2023-03-05T00:44:05.597Z,3.39
2023-03-05T00:46:33.116Z,3.42
2023-03-05T00:48:59.900Z,3.42
2023-03-05T00:51:26.872Z,3.39
2023-03-05T00:53:53.687Z,3.27
2023-03-05T00:56:21.274Z,3.29
2023-03-05T00:58:48.205Z,3.26
2023-03-05T01:01:16.338Z,3.24
2023-03-05T01:03:43.150Z,3.28
2023-03-05T01:06:13.671Z,3.34
2023-03-05T01:08:40.588Z,3.37
2023-03-05T01:11:08.808Z,3.26
2023-03-05T01:13:35.819Z,3.27
2023-03-05T01:16:03.263Z,3.27
2023-03-05T01:18:29.937Z,3.25
2023-03-05T01:20:56.745Z,3.29
2023-03-05T01:23:23.946Z,3.40
2023-03-05T01:25:53.772Z,3.49
2023-03-05T01:28:20.523Z,3.54
2023-03-05T01:30:47.769Z,3.44
2023-03-05T01:33:14.610Z,3.53
2023-03-05T01:35:41.935Z,3.40
2023-03-05T01:38:08.843Z,3.33
2023-03-05T01:40:35.543Z,3.39
2023-03-05T01:43:22.324Z,3.48
2023-03-05T01:45:52.776Z,3.42
2023-03-05T01:48:19.592Z,3.47
2023-03-05T01:50:48.705Z,3.39
2023-03-05T01:53:15.416Z,3.46
2023-03-05T01:55:42.233Z,3.40
2023-03-05T01:58:13.125Z,3.33
2023-03-05T02:00:48.593Z,3.18
2023-03-05T02:03:15.613Z,3.20
2023-03-05T02:05:44.710Z,3.06
2023-03-05T02:08:17.793Z,3.06
2023-03-05T02:10:47.337Z,3.04
2023-03-05T02:13:22.810Z,3.06
2023-03-05T02:15:50.877Z,3.01
2023-03-05T02:18:19.668Z,3.02
2023-03-05T02:20:51.189Z,2.98
2023-03-05T02:23:21.296Z,2.97
2023-03-05T02:25:48.598Z,2.94
2023-03-05T02:28:45.740Z,2.86
2023-03-05T02:31:18.184Z,2.91
2023-03-05T02:33:47.285Z,2.84
2023-03-05T02:36:14.207Z,2.85
2023-03-05T02:38:42.062Z,2.76
2023-03-05T02:41:09.124Z,2.72
2023-03-05T02:43:36.654Z,2.85
2023-03-05T02:46:04.394Z,2.82
2023-03-05T02:48:31.799Z,2.77
2023-03-05T02:50:58.614Z,2.82
2023-03-05T02:53:26.518Z,2.83
2023-03-05T02:55:53.253Z,2.80
2023-03-05T02:58:20.095Z,2.82
2023-03-05T03:00:49.714Z,2.76
2023-03-05T03:03:16.654Z,2.77
2023-03-05T03:05:43.410Z,2.73
2023-03-05T03:08:10.593Z,2.73
2023-03-05T03:10:38.149Z,2.77
2023-03-05T03:13:05.112Z,2.73
2023-03-05T03:15:31.854Z,2.73
2023-03-05T03:17:58.775Z,2.76
2023-03-05T03:20:25.577Z,2.75
2023-03-05T03:25:21.814Z,2.69
2023-03-05T03:27:49.030Z,2.62
2023-03-05T03:30:16.804Z,2.69
2023-03-05T03:32:44.118Z,2.69
2023-03-05T03:35:12.806Z,2.66
2023-03-05T03:37:40.391Z,2.64
2023-03-05T03:40:08.179Z,2.64
2023-03-05T03:42:35.162Z,2.61
2023-03-05T03:45:02.612Z,2.56
2023-03-05T03:47:30.596Z,2.56
2023-03-05T03:49:59.471Z,2.52
2023-03-05T03:52:26.781Z,2.57
2023-03-05T03:54:53.912Z,2.54
2023-03-05T03:57:21.057Z,2.60
2023-03-05T03:59:48.023Z,2.60
2023-03-05T04:02:14.718Z,2.60
2023-03-05T04:04:41.596Z,2.63
2023-03-05T04:07:08.440Z,2.68
2023-03-05T04:09:35.335Z,2.63
2023-03-05T04:12:02.777Z,2.62
2023-03-05T04:14:32.315Z,2.70
2023-03-05T04:16:59.279Z,2.61
2023-03-05T04:19:25.927Z,2.64
2023-03-05T04:21:53.728Z,2.59
2023-03-05T04:24:20.373Z,2.66
2023-03-05T04:26:47.063Z,2.56
2023-03-05T04:29:13.824Z,2.62
2023-03-05T04:31:40.578Z,2.71
2023-03-05T04:34:07.249Z,2.64
2023-03-05T04:36:34.149Z,2.65
2023-03-05T04:39:01.250Z,2.67
2023-03-05T04:41:28.336Z,2.74
2023-03-05T04:43:55.030Z,2.76
2023-03-05T04:46:22.058Z,2.70
2023-03-05T04:48:48.839Z,2.65
2023-03-05T04:51:16.189Z,2.79
2023-03-05T04:53:42.813Z,2.82
2023-03-05T04:56:09.517Z,2.77
2023-03-05T04:58:39.510Z,2.72
2023-03-05T05:01:07.479Z,2.77
2023-03-05T05:03:34.589Z,2.76
2023-03-05T05:06:01.988Z,2.69
2023-03-05T05:08:29.436Z,2.74
2023-03-05T05:10:57.486Z,2.68
2023-03-05T05:13:26.212Z,2.66
2023-03-05T05:15:52.854Z,2.67
2023-03-05T05:18:20.725Z,2.69
2023-03-05T05:20:48.361Z,2.70
2023-03-05T05:23:15.593Z,2.75
2023-03-05T05:25:43.510Z,2.71
2023-03-05T05:28:11.627Z,2.70
2023-03-05T05:30:39.196Z,2.72
2023-03-05T05:33:05.875Z,2.70
2023-03-05T05:35:33.650Z,2.73
2023-03-05T05:38:00.545Z,2.65
2023-03-05T05:40:27.354Z,2.66
2023-03-05T05:42:54.250Z,2.63
2023-03-05T05:45:21.004Z,2.57
2023-03-05T05:47:48.013Z,2.54
2023-03-05T05:50:15.129Z,2.54
2023-03-05T05:52:41.805Z,2.55
2023-03-05T05:55:09.272Z,2.61
2023-03-05T05:57:36.549Z,2.58
2023-03-05T06:00:06.979Z,2.56
2023-03-05T06:02:34.328Z,2.50
2023-03-05T06:05:01.074Z,2.55
2023-03-05T06:07:28.560Z,2.54
2023-03-05T06:09:55.233Z,2.56
2023-03-05T06:12:21.925Z,2.56
2023-03-05T06:14:48.644Z,2.57
2023-03-05T06:17:25.094Z,2.56
2023-03-05T06:19:56.842Z,2.65
2023-03-05T06:22:23.575Z,2.69
2023-03-05T06:24:50.517Z,2.57
2023-03-05T06:27:17.503Z,2.62
2023-03-05T06:29:44.317Z,2.63
2023-03-05T06:32:11.254Z,2.58
2023-03-05T06:34:38.100Z,2.58
2023-03-05T06:37:06.272Z,2.71
2023-03-05T06:39:33.671Z,2.65
2023-03-05T06:42:00.531Z,2.69
2023-03-05T06:44:27.534Z,2.75
2023-03-05T06:46:54.428Z,2.82
2023-03-05T06:49:21.209Z,2.80
2023-03-05T06:51:47.932Z,2.78
2023-03-05T06:54:16.742Z,2.78
2023-03-05T06:56:46.064Z,2.85
2023-03-05T06:59:15.445Z,2.91
2023-03-05T07:01:43.498Z,2.87
2023-03-05T07:04:12.443Z,2.85
2023-03-05T07:06:39.973Z,2.86
2023-03-05T07:09:08.240Z,2.80
2023-03-05T07:11:35.321Z,2.76
2023-03-05T07:14:03.150Z,2.75
2023-03-05T07:16:33.131Z,2.75
2023-03-05T07:19:05.657Z,2.74
2023-03-05T07:21:34.437Z,2.73
2023-03-05T07:24:02.980Z,2.62
2023-03-05T07:26:31.184Z,2.63
2023-03-05T07:28:58.068Z,2.64
2023-03-05T07:31:33.506Z,2.62
2023-03-05T07:34:02.674Z,2.61
2023-03-05T07:36:32.241Z,2.53
2023-03-05T07:38:59.197Z,2.73
2023-03-05T07:41:27.354Z,2.82
2023-03-05T07:43:55.345Z,2.86
2023-03-05T07:46:31.412Z,2.85
2023-03-05T07:48:59.864Z,2.83
2023-03-05T07:51:27.715Z,2.84
2023-03-05T07:53:57.629Z,2.85
2023-03-05T07:56:31.906Z,2.84
2023-03-05T07:59:00.363Z,2.80
2023-03-05T08:01:29.289Z,3.03
2023-03-05T08:03:56.275Z,2.90
2023-03-05T08:06:23.002Z,2.92
2023-03-05T08:08:49.785Z,2.93
2023-03-05T08:11:18.278Z,3.08
2023-03-05T08:13:45.768Z,3.15
2023-03-05T08:16:16.061Z,3.31
2023-03-05T08:18:43.022Z,3.39
2023-03-05T08:21:21.196Z,3.40
2023-03-05T08:23:48.887Z,3.42
2023-03-05T08:26:18.774Z,3.40
2023-03-05T08:28:45.724Z,3.48
2023-03-05T08:31:14.286Z,3.24
2023-03-05T08:33:41.912Z,3.31
2023-03-05T08:36:09.765Z,3.50
2023-03-05T08:38:36.756Z,3.35
2023-03-05T08:41:04.274Z,3.28
2023-03-05T08:43:33.988Z,3.33
2023-03-05T08:46:01.753Z,3.27
2023-03-05T08:48:31.918Z,3.31
2023-03-05T08:51:05.309Z,3.21
2023-03-05T08:53:32.057Z,3.25
2023-03-05T08:56:02.088Z,3.51
2023-03-05T08:58:28.983Z,3.44
2023-03-05T09:00:59.094Z,3.51
2023-03-05T09:03:26.185Z,3.53
2023-03-05T09:05:54.035Z,3.46
2023-03-05T09:08:21.389Z,3.66
2023-03-05T09:10:48.249Z,3.49
2023-03-05T09:13:15.045Z,3.59
2023-03-05T09:15:41.833Z,3.45
2023-03-05T09:18:09.389Z,3.23
2023-03-05T09:20:37.054Z,3.52
2023-03-05T09:23:05.865Z,3.53
2023-03-05T09:25:32.957Z,3.51
2023-03-05T09:28:00.918Z,3.68
2023-03-05T09:30:27.746Z,3.57
2023-03-05T09:32:55.010Z,3.54
2023-03-05T09:35:21.779Z,3.51
2023-03-05T09:37:48.700Z,3.84
2023-03-05T09:40:18.148Z,3.70
2023-03-05T09:42:47.514Z,3.85
2023-03-05T09:45:54.193Z,3.90
2023-03-05T09:48:54.058Z,3.85
2023-03-05T09:51:29.493Z,4.08
2023-03-05T09:54:05.672Z,4.12
2023-03-05T09:56:39.956Z,3.97
2023-03-05T09:59:28.736Z,4.14
2023-03-05T10:02:12.653Z,4.37
2023-03-05T10:07:26.018Z,4.31
2023-03-05T10:09:53.982Z,4.33
2023-03-05T10:12:28.066Z,3.97
2023-03-05T10:14:55.693Z,4.16
2023-03-05T10:17:51.165Z,4.09
2023-03-05T10:20:45.931Z,4.17
2023-03-05T10:23:33.788Z,4.03
2023-03-05T10:26:22.539Z,3.98
2023-03-05T10:28:52.945Z,4.11
2023-03-05T10:31:25.748Z,3.93
2023-03-05T10:33:52.985Z,4.03
2023-03-05T10:36:28.401Z,4.07
2023-03-05T10:39:07.014Z,4.22
2023-03-05T10:41:53.918Z,4.23
2023-03-05T10:44:46.857Z,4.26
2023-03-05T10:47:44.203Z,4.46
2023-03-05T10:50:24.287Z,4.41
2023-03-05T10:52:52.952Z,4.45
2023-03-05T10:55:22.091Z,4.09
2023-03-05T10:57:50.487Z,3.99
2023-03-05T11:00:28.315Z,4.36
2023-03-05T11:03:03.103Z,4.19
2023-03-05T11:05:39.211Z,4.35
2023-03-05T11:08:27.610Z,4.17
2023-03-05T11:11:09.761Z,3.87
2023-03-05T11:13:54.035Z,4.13
2023-03-05T11:16:27.927Z,4.21
2023-03-05T11:19:11.813Z,4.22
2023-03-05T11:21:38.631Z,4.26
2023-03-05T11:24:19.881Z,4.09
2023-03-05T11:26:54.151Z,4.11
2023-03-05T11:29:29.388Z,4.25
2023-03-05T11:31:57.156Z,4.21
2023-03-05T11:34:32.743Z,4.03
2023-03-05T11:37:08.327Z,4.40
2023-03-05T11:39:38.477Z,4.24
2023-03-05T11:42:13.249Z,4.20
2023-03-05T11:44:53.990Z,4.37
2023-03-05T11:47:36.103Z,4.62
2023-03-05T11:50:14.955Z,4.63
2023-03-05T11:52:54.030Z,4.49
2023-03-05T11:55:46.160Z,4.47
2023-03-05T11:58:32.699Z,4.73
2023-03-05T12:01:01.450Z,4.41
2023-03-05T12:03:35.343Z,4.42
2023-03-05T12:06:18.091Z,4.46
2023-03-05T12:08:49.981Z,4.12
2023-03-05T12:11:26.596Z,4.08
2023-03-05T12:13:57.942Z,4.24
2023-03-05T12:16:51.074Z,4.38
2023-03-05T12:19:38.920Z,4.41
2023-03-05T12:22:15.331Z,4.16
2023-03-05T12:24:42.117Z,4.46
2023-03-05T12:27:12.197Z,4.39
2023-03-05T12:32:35.416Z,4.55
2023-03-05T12:35:04.628Z,4.64
2023-03-05T12:37:34.524Z,4.54
2023-03-05T12:40:28.460Z,4.41
2023-03-05T12:42:57.585Z,4.81
2023-03-05T12:45:28.425Z,4.72
2023-03-05T12:47:55.095Z,4.82
2023-03-05T12:50:28.108Z,4.79
2023-03-05T12:52:57.218Z,4.89
2023-03-05T12:55:48.275Z,5.09
2023-03-05T12:58:42.740Z,5.15
2023-03-05T13:01:12.501Z,5.06
2023-03-05T13:03:54.104Z,4.76
2023-03-05T13:06:47.426Z,4.87
2023-03-05T13:09:40.551Z,4.88
2023-03-05T13:12:14.049Z,4.79
2023-03-05T13:14:49.026Z,4.63
2023-03-05T13:17:41.269Z,4.78
2023-03-05T13:20:29.324Z,4.85
2023-03-05T13:23:08.258Z,4.69
2023-03-05T13:25:35.132Z,4.94
2023-03-05T13:28:11.310Z,5.49
2023-03-05T13:30:38.897Z,5.00
2023-03-05T13:33:06.178Z,4.87
2023-03-05T13:35:33.893Z,4.81
2023-03-05T13:38:02.274Z,4.85
2023-03-05T13:40:31.866Z,4.83
2023-03-05T13:43:17.980Z,4.46
2023-03-05T13:45:54.270Z,4.49
2023-03-05T13:48:21.909Z,4.52
2023-03-05T13:50:54.159Z,4.48
2023-03-05T13:53:27.475Z,4.48
2023-03-05T13:56:01.429Z,4.33
2023-03-05T13:58:54.065Z,4.31
2023-03-05T14:01:34.297Z,4.30
2023-03-05T14:04:18.136Z,4.41
2023-03-05T14:06:54.048Z,4.11
2023-03-05T14:09:26.931Z,4.32
2023-03-05T14:12:02.548Z,4.43
2023-03-05T14:14:31.781Z,4.23
2023-03-05T14:17:27.697Z,4.19
2023-03-05T14:20:10.524Z,4.30
2023-03-05T14:22:39.364Z,4.21
2023-03-05T14:25:24.496Z,4.33
2023-03-05T14:30:22.221Z,4.20
2023-03-05T14:35:24.551Z,4.36
2023-03-05T14:37:54.060Z,4.41
2023-03-05T14:40:33.118Z,4.33
2023-03-05T14:43:02.007Z,4.32
2023-03-05T14:45:30.779Z,4.53
2023-03-05T14:48:00.397Z,4.47
2023-03-05T14:50:33.943Z,4.52
2023-03-05T14:53:16.680Z,4.61
2023-03-05T14:55:43.948Z,4.52
2023-03-05T14:58:16.756Z,4.83
2023-03-05T15:00:43.781Z,4.76
2023-03-05T15:03:15.229Z,4.73
2023-03-05T15:05:43.811Z,4.61
2023-03-05T15:08:17.366Z,4.74
2023-03-05T15:10:44.279Z,4.87
2023-03-05T15:13:12.807Z,4.59
2023-03-05T15:15:40.790Z,4.55
2023-03-05T15:18:11.214Z,4.50
2023-03-05T15:20:39.842Z,4.48
2023-03-05T15:23:07.033Z,4.53
2023-03-05T15:25:34.005Z,4.26
2023-03-05T15:28:00.734Z,4.38
2023-03-05T15:30:35.304Z,4.34
2023-03-05T15:33:05.436Z,4.33
2023-03-05T15:35:32.941Z,4.47
2023-03-05T15:37:59.725Z,4.34
2023-03-05T15:40:28.002Z,4.35
2023-03-05T15:42:55.922Z,4.50
2023-03-05T15:45:22.851Z,4.31
2023-03-05T15:47:51.742Z,4.39
2023-03-05T15:50:19.982Z,4.42
2023-03-05T15:52:47.196Z,4.45
2023-03-05T15:55:18.652Z,4.22
2023-03-05T15:57:48.646Z,4.21
2023-03-05T16:00:17.755Z,4.17
2023-03-05T16:02:45.366Z,4.16
2023-03-05T16:05:12.120Z,4.14
2023-03-05T16:07:41.965Z,4.15
2023-03-05T16:10:13.174Z,4.16
2023-03-05T16:12:42.245Z,4.08
2023-03-05T16:15:15.422Z,4.01
2023-03-05T16:17:45.114Z,4.14
2023-03-05T16:20:15.331Z,3.96
2023-03-05T16:22:42.494Z,4.02
2023-03-05T16:25:09.468Z,4.06
2023-03-05T16:27:36.709Z,4.01
2023-03-05T16:30:05.241Z,4.06
2023-03-05T16:32:33.939Z,3.94
2023-03-05T16:35:04.170Z,3.90
2023-03-05T16:37:31.521Z,3.89
2023-03-05T16:40:00.054Z,3.92
2023-03-05T16:42:27.041Z,3.88
2023-03-05T16:44:54.989Z,3.77
2023-03-05T16:47:21.779Z,3.88
2023-03-05T16:49:48.583Z,3.76
2023-03-05T16:52:19.819Z,3.82
2023-03-05T16:54:47.723Z,3.73
2023-03-05T16:57:14.537Z,3.69
2023-03-05T16:59:41.749Z,3.65
2023-03-05T17:02:08.805Z,3.73
2023-03-05T17:04:36.072Z,3.68
2023-03-05T17:07:04.296Z,3.74
2023-03-05T17:09:31.788Z,3.66
2023-03-05T17:11:58.825Z,3.58
2023-03-05T17:14:25.634Z,3.64
2023-03-05T17:19:19.442Z,3.59
2023-03-05T17:21:46.581Z,3.65
2023-03-05T17:24:13.394Z,3.63
2023-03-05T17:26:40.926Z,3.61
2023-03-05T17:29:07.646Z,3.67
2023-03-05T17:31:34.460Z,3.64
2023-03-05T17:34:02.304Z,3.63
2023-03-05T17:36:29.181Z,3.54
2023-03-05T17:38:56.203Z,3.58
2023-03-05T17:41:24.591Z,3.62
2023-03-05T17:43:51.846Z,3.60
2023-03-05T17:46:18.598Z,3.57
2023-03-05T17:48:45.374Z,3.58
2023-03-05T17:51:14.177Z,3.57
2023-03-05T17:53:40.922Z,3.46
2023-03-05T17:56:09.764Z,3.47
2023-03-05T17:58:36.987Z,3.43
2023-03-05T18:01:04.550Z,3.40
2023-03-05T18:03:31.244Z,3.38
2023-03-05T18:05:57.954Z,3.39
2023-03-05T18:08:24.702Z,3.45
2023-03-05T18:10:51.597Z,3.49
2023-03-05T18:13:18.297Z,3.39
2023-03-05T18:15:47.723Z,3.39
2023-03-05T18:18:16.078Z,3.29
2023-03-05T18:20:42.978Z,3.38
2023-03-05T18:23:10.660Z,3.31
2023-03-05T18:25:37.389Z,3.28
2023-03-05T18:28:08.667Z,3.15
2023-03-05T18:30:35.895Z,3.25
2023-03-05T18:33:03.119Z,3.13
2023-03-05T18:35:30.721Z,3.16
2023-03-05T18:37:57.902Z,3.23
2023-03-05T18:40:26.814Z,3.24
2023-03-05T18:42:54.085Z,3.17
2023-03-05T18:45:22.675Z,3.15
2023-03-05T18:50:18.815Z,3.24
2023-03-05T18:52:45.955Z,3.20
2023-03-05T18:55:18.076Z,3.12
2023-03-05T18:57:44.923Z,3.09
2023-03-05T19:00:17.865Z,3.20
2023-03-05T19:02:44.577Z,3.09
2023-03-05T19:05:13.691Z,3.12
2023-03-05T19:07:41.338Z,3.15
2023-03-05T19:10:13.894Z,3.20
2023-03-05T19:12:51.163Z,3.12
2023-03-05T19:15:19.253Z,3.04
2023-03-05T19:17:46.024Z,3.04
2023-03-05T19:20:14.629Z,3.09
2023-03-05T19:22:41.706Z,3.11
2023-03-05T19:25:09.965Z,3.08
2023-03-05T19:27:37.870Z,3.10
2023-03-05T19:30:07.766Z,3.06
2023-03-05T19:32:34.937Z,3.11
2023-03-05T19:35:02.467Z,3.15
2023-03-05T19:37:30.553Z,3.12
2023-03-05T19:39:57.208Z,3.13
2023-03-05T19:42:24.676Z,3.03
2023-03-05T19:47:19.534Z,2.96
2023-03-05T19:49:46.385Z,3.01
2023-03-05T19:52:14.369Z,3.06
2023-03-05T19:54:42.080Z,3.04
2023-03-05T19:57:09.777Z,2.97
2023-03-05T19:59:36.716Z,2.93
2023-03-05T20:02:04.740Z,3.04
2023-03-05T20:04:35.024Z,2.97
2023-03-05T20:07:04.081Z,2.94
2023-03-05T20:09:31.043Z,2.91
2023-03-05T20:12:03.058Z,2.91
2023-03-05T20:14:29.853Z,2.89
2023-03-05T20:16:56.665Z,2.91
2023-03-05T20:19:23.353Z,2.90
2023-03-05T20:21:50.017Z,2.86
2023-03-05T20:24:18.768Z,2.84
2023-03-05T20:26:47.466Z,2.76
2023-03-05T20:29:17.777Z,2.77
2023-03-05T20:31:45.578Z,2.76
2023-03-05T20:34:15.607Z,2.66
2023-03-05T20:36:43.258Z,2.68
2023-03-05T20:39:11.066Z,2.76
2023-03-05T20:41:39.309Z,2.75
2023-03-05T20:44:07.257Z,2.68
2023-03-05T20:46:36.720Z,2.74
2023-03-05T20:49:04.848Z,2.69
2023-03-05T20:51:38.607Z,2.67
2023-03-05T20:54:08.575Z,2.77
2023-03-05T20:56:37.170Z,2.77
2023-03-05T20:59:09.036Z,2.73
2023-03-05T21:01:39.063Z,2.69
2023-03-05T21:04:07.340Z,2.75
2023-03-05T21:06:34.693Z,2.69
2023-03-05T21:09:02.141Z,2.75
2023-03-05T21:11:29.009Z,2.84
2023-03-05T21:13:55.900Z,2.81
2023-03-05T21:16:25.409Z,2.76
2023-03-05T21:21:19.583Z,2.74
2023-03-05T21:23:48.287Z,2.73
2023-03-05T21:26:15.472Z,2.68
2023-03-05T21:28:42.661Z,2.70
2023-03-05T21:31:14.668Z,2.78
2023-03-05T21:33:42.305Z,2.68
2023-03-05T21:36:09.493Z,2.75
2023-03-05T21:38:36.799Z,2.67
2023-03-05T21:41:04.480Z,2.68
2023-03-05T21:43:32.700Z,2.69
2023-03-05T21:46:01.505Z,2.68
2023-03-05T21:48:28.467Z,2.76
2023-03-05T21:50:55.544Z,2.70
2023-03-05T21:53:23.152Z,2.70
2023-03-05T21:55:54.227Z,2.72
2023-03-05T21:58:20.946Z,2.68
2023-03-05T22:00:47.634Z,2.73
2023-03-05T22:03:14.289Z,2.68
2023-03-05T22:05:43.796Z,2.74
2023-03-05T22:08:10.571Z,2.71
2023-03-05T22:10:37.332Z,2.71
2023-03-05T22:13:10.744Z,2.70
2023-03-05T22:15:49.969Z,2.62
2023-03-05T22:18:22.405Z,2.57
2023-03-05T22:20:49.888Z,2.56
2023-03-05T22:23:18.177Z,2.56
2023-03-05T22:25:45.020Z,2.54
2023-03-05T22:28:13.055Z,2.63
2023-03-05T22:30:45.199Z,2.60
2023-03-05T22:33:12.558Z,2.60
2023-03-05T22:35:42.953Z,2.58
2023-03-05T22:38:11.435Z,2.64
2023-03-05T22:40:43.051Z,2.66
2023-03-05T22:43:10.042Z,2.53
2023-03-05T22:45:37.062Z,2.46
2023-03-05T22:48:04.076Z,2.38
2023-03-05T22:50:30.813Z,2.49
2023-03-05T22:52:58.680Z,2.53
2023-03-05T22:55:25.651Z,2.53
2023-03-05T23:00:26.291Z,2.46
2023-03-05T23:02:54.295Z,2.44
2023-03-05T23:05:21.828Z,2.35
2023-03-05T23:07:49.409Z,2.32
2023-03-05T23:10:19.773Z,2.41
2023-03-05T23:12:50.274Z,2.37
2023-03-05T23:15:23.306Z,2.43
2023-03-05T23:17:50.185Z,2.47
2023-03-05T23:20:21.110Z,2.41
2023-03-05T23:22:54.728Z,2.38
2023-03-05T23:25:23.310Z,2.45
2023-03-05T23:27:50.739Z,2.38
2023-03-05T23:30:18.210Z,2.46
2023-03-05T23:32:54.290Z,2.43
2023-03-05T23:35:27.612Z,2.41
2023-03-05T23:37:56.040Z,2.55
2023-03-05T23:40:25.880Z,2.45
2023-03-05T23:42:54.272Z,2.49
2023-03-05T23:45:22.285Z,2.56
2023-03-05T23:47:50.111Z,2.53
2023-03-05T23:50:22.407Z,2.44
2023-03-05T23:52:54.332Z,2.46
2023-03-05T23:55:30.633Z,2.45
2023-03-05T23:57:57.332Z,2.48
